Time;durP1;ratioP1;P1;durP2;ratioP2;P2;SDS_P1;SDS_P2;PMS_P1;PMS_P2;Temp;Humidity;BMP_temperature;BMP_pressure;BME280_temperature;BME280_humidity;BME280_pressure;Samples;Min_cycle;Max_cycle;Signal;HPM_P1;HPM_P2
2024/01/06 00:00:55;;;;;;;34.42;16.48;;;3.20;99.90;;;;;;5053905;28;20029;-64
2024/01/06 00:03:20;;;;;;;32.20;15.18;;;3.20;99.90;;;;;;5055414;28;20122;-63
2024/01/06 00:05:46;;;;;;;30.00;16.55;;;3.20;99.90;;;;;;5054445;28;20087;-64
2024/01/06 00:08:11;;;;;;;28.20;14.93;;;3.30;99.90;;;;;;5055793;28;20040;-64
2024/01/06 00:10:37;;;;;;;31.55;15.13;;;3.20;99.90;;;;;;5055084;28;20024;-63
2024/01/06 00:13:03;;;;;;;29.50;15.10;;;3.30;99.90;;;;;;5053517;28;20056;-63
2024/01/06 00:15:28;;;;;;;28.25;15.43;;;3.20;99.90;;;;;;5053415;28;20040;-64
2024/01/06 00:17:54;;;;;;;28.60;14.35;;;3.20;99.90;;;;;;5054071;28;20055;-64
2024/01/06 00:20:19;;;;;;;28.83;15.95;;;3.20;99.90;;;;;;5054780;28;20028;-64
2024/01/06 00:22:45;;;;;;;26.77;14.98;;;3.20;99.90;;;;;;5053776;28;20433;-64
2024/01/06 00:25:11;;;;;;;27.35;15.63;;;3.20;99.90;;;;;;5055014;28;20029;-63
2024/01/06 00:27:36;;;;;;;27.27;13.82;;;3.20;99.90;;;;;;5053418;28;20033;-64
2024/01/06 00:30:03;;;;;;;26.63;13.57;;;3.30;99.90;;;;;;5053600;28;20108;-63
2024/01/06 00:32:29;;;;;;;27.80;14.85;;;3.20;99.90;;;;;;5053534;28;20456;-64
2024/01/06 00:34:55;;;;;;;29.15;14.48;;;3.30;99.90;;;;;;5053898;28;20025;-63
2024/01/06 00:37:20;;;;;;;32.28;15.07;;;3.30;99.90;;;;;;5054764;28;20492;-63
2024/01/06 00:39:46;;;;;;;30.13;15.55;;;3.30;99.90;;;;;;5055106;28;20468;-63
2024/01/06 00:42:11;;;;;;;27.27;15.13;;;3.30;99.90;;;;;;5053370;28;20025;-63
2024/01/06 00:44:37;;;;;;;28.15;15.50;;;3.40;99.90;;;;;;5053559;28;20025;-63
2024/01/06 00:47:03;;;;;;;28.52;15.05;;;3.40;99.90;;;;;;5053237;28;20040;-64
2024/01/06 00:49:28;;;;;;;28.30;15.50;;;3.40;99.90;;;;;;5053234;28;20039;-63
2024/01/06 00:51:54;;;;;;;30.73;15.80;;;3.50;99.90;;;;;;5053359;28;20029;-64
2024/01/06 00:54:20;;;;;;;31.38;15.07;;;3.50;99.90;;;;;;5053983;28;20049;-64
2024/01/06 00:56:45;;;;;;;27.35;14.90;;;3.50;99.90;;;;;;5053097;28;20067;-64
2024/01/06 00:59:11;;;;;;;27.85;14.10;;;3.50;99.90;;;;;;5053119;28;20025;-64
2024/01/06 01:01:36;;;;;;;24.95;14.90;;;3.50;99.90;;;;;;5054367;28;20021;-64
2024/01/06 01:04:02;;;;;;;30.05;15.68;;;3.50;99.90;;;;;;5053069;28;20526;-64
2024/01/06 01:06:28;;;;;;;29.30;15.07;;;3.40;99.90;;;;;;5053036;28;20021;-64
2024/01/06 01:08:53;;;;;;;27.08;14.68;;;3.40;99.90;;;;;;5054124;28;20500;-64
2024/01/06 01:11:19;;;;;;;27.42;15.38;;;3.40;99.90;;;;;;5052893;28;20070;-64
2024/01/06 01:13:45;;;;;;;32.03;16.23;;;3.30;99.90;;;;;;5053024;28;20027;-64
2024/01/06 01:16:10;;;;;;;35.45;17.10;;;3.40;99.90;;;;;;5054063;28;20104;-65
2024/01/06 01:18:36;;;;;;;31.88;17.13;;;3.30;99.90;;;;;;5054033;28;20025;-65
2024/01/06 01:21:02;;;;;;;30.48;16.20;;;3.30;99.90;;;;;;5054042;28;20037;-64
2024/01/06 01:23:27;;;;;;;31.02;16.63;;;3.30;99.90;;;;;;5054290;28;20033;-64
2024/01/06 01:25:54;;;;;;;30.02;15.90;;;3.40;99.90;;;;;;5053678;28;20465;-65
2024/01/06 01:28:20;;;;;;;34.78;17.25;;;3.40;99.90;;;;;;5055666;28;20025;-65
2024/01/06 01:30:46;;;;;;;32.25;15.73;;;3.40;99.90;;;;;;5053888;28;20078;-69
2024/01/06 01:33:11;;;;;;;32.20;15.80;;;3.40;99.90;;;;;;5053318;28;20028;-64
2024/01/06 01:35:37;;;;;;;27.05;16.08;;;3.40;99.90;;;;;;5052666;28;20468;-64
2024/01/06 01:38:03;;;;;;;31.88;16.63;;;3.40;99.90;;;;;;5052538;28;20074;-64
2024/01/06 01:40:28;;;;;;;29.10;16.60;;;3.40;99.90;;;;;;5053842;28;20025;-64
2024/01/06 01:42:54;;;;;;;33.42;17.42;;;3.40;99.90;;;;;;5053801;28;20063;-64
2024/01/06 01:45:19;;;;;;;32.20;17.70;;;3.50;99.90;;;;;;5053745;28;20162;-64
2024/01/06 01:47:46;;;;;;;33.13;16.25;;;3.80;99.90;;;;;;5052603;28;20078;-64
2024/01/06 01:50:14;;;;;;;32.45;16.73;;;3.50;99.90;;;;;;5053574;28;20024;-64
2024/01/06 01:52:42;;;;;;;27.17;15.73;;;3.50;99.90;;;;;;5053552;28;20503;-64
2024/01/06 01:55:08;;;;;;;32.85;16.98;;;3.50;99.90;;;;;;5052621;28;20472;-67
2024/01/06 01:57:34;;;;;;;39.33;18.30;;;3.50;99.90;;;;;;5052524;28;20044;-66
2024/01/06 02:00:00;;;;;;;30.88;18.13;;;3.60;99.90;;;;;;5052522;28;20021;-64
2024/01/06 02:02:28;;;;;;;30.70;16.40;;;3.60;99.90;;;;;;5052607;28;20460;-65
2024/01/06 02:04:54;;;;;;;33.47;17.90;;;3.60;99.90;;;;;;5054157;28;20027;-65
2024/01/06 02:07:20;;;;;;;34.95;18.58;;;3.60;99.90;;;;;;5054403;28;20033;-65
2024/01/06 02:09:46;;;;;;;32.70;16.50;;;3.60;99.90;;;;;;5054925;28;20037;-64
2024/01/06 02:12:11;;;;;;;33.28;17.63;;;3.80;99.90;;;;;;5055049;28;20033;-69
2024/01/06 02:14:37;;;;;;;34.38;18.33;;;3.60;99.90;;;;;;5054412;28;20460;-65
2024/01/06 02:17:03;;;;;;;33.80;17.88;;;3.60;99.90;;;;;;5052763;28;20380;-64
2024/01/06 02:19:28;;;;;;;37.70;18.40;;;3.60;99.90;;;;;;5053875;28;20029;-64
2024/01/06 02:21:54;;;;;;;36.42;18.25;;;3.60;99.90;;;;;;5053561;28;20021;-65
2024/01/06 02:24:20;;;;;;;36.67;19.10;;;3.60;99.90;;;;;;5053437;28;20473;-64
2024/01/06 02:26:46;;;;;;;36.72;17.80;;;3.60;99.90;;;;;;5053587;28;20026;-64
2024/01/06 02:29:12;;;;;;;38.83;19.05;;;3.60;99.90;;;;;;5053113;28;20071;-64
2024/01/06 02:31:37;;;;;;;35.75;17.80;;;3.60;99.90;;;;;;5053308;28;20479;-64
2024/01/06 02:34:03;;;;;;;36.55;19.35;;;3.60;99.90;;;;;;5053435;28;20453;-64
2024/01/06 02:36:29;;;;;;;36.15;19.02;;;3.60;99.90;;;;;;5052013;28;20025;-64
2024/01/06 02:38:54;;;;;;;35.00;20.90;;;3.60;99.90;;;;;;5055426;28;20053;-64
2024/01/06 02:41:20;;;;;;;42.80;20.38;;;3.70;99.90;;;;;;5056671;28;20067;-65
2024/01/06 02:43:47;;;;;;;36.63;20.00;;;3.70;99.90;;;;;;5055708;28;20372;-64
2024/01/06 02:46:12;;;;;;;41.35;20.45;;;3.70;99.90;;;;;;5055611;28;20469;-64
2024/01/06 02:48:38;;;;;;;36.13;20.45;;;3.70;99.90;;;;;;5056463;28;20040;-64
2024/01/06 02:51:04;;;;;;;37.60;20.20;;;3.80;99.90;;;;;;5055453;28;20032;-65
2024/01/06 02:53:29;;;;;;;35.90;19.40;;;3.80;99.90;;;;;;5056971;28;20052;-64
2024/01/06 02:55:55;;;;;;;36.72;19.17;;;3.80;99.90;;;;;;5056698;28;20028;-65
2024/01/06 02:58:20;;;;;;;41.55;20.02;;;3.80;99.90;;;;;;5055658;28;20029;-64
2024/01/06 03:00:46;;;;;;;28.92;17.92;;;3.80;99.90;;;;;;5055301;28;20074;-64
2024/01/06 03:03:11;;;;;;;32.03;18.55;;;3.70;99.90;;;;;;5055332;28;20021;-64
2024/01/06 03:05:37;;;;;;;35.42;18.83;;;3.70;99.90;;;;;;5056513;28;20033;-65
2024/01/06 03:08:04;;;;;;;35.03;19.02;;;3.70;99.90;;;;;;5056100;28;20090;-64
2024/01/06 03:10:29;;;;;;;39.80;21.52;;;3.70;99.90;;;;;;5056119;28;20465;-64
2024/01/06 03:12:55;;;;;;;40.53;22.63;;;3.70;99.90;;;;;;5056427;28;20025;-64
2024/01/06 03:15:20;;;;;;;47.55;24.90;;;3.80;99.90;;;;;;5056025;28;20070;-65
2024/01/06 03:17:46;;;;;;;45.25;24.27;;;3.80;99.90;;;;;;5056005;28;20028;-64
2024/01/06 03:20:12;;;;;;;47.90;26.95;;;4.00;99.90;;;;;;5055005;28;20064;-65
2024/01/06 03:22:38;;;;;;;57.08;29.27;;;3.90;99.90;;;;;;5055940;28;20033;-64
2024/01/06 03:25:04;;;;;;;54.20;29.42;;;3.90;99.90;;;;;;5056138;28;20017;-64
2024/01/06 03:27:30;;;;;;;53.30;28.80;;;3.90;99.90;;;;;;5054473;28;20033;-63
2024/01/06 03:29:55;;;;;;;52.63;28.27;;;3.90;99.90;;;;;;5056049;28;20025;-64
2024/01/06 03:32:22;;;;;;;52.92;28.70;;;3.90;99.90;;;;;;5054990;28;20090;-64
2024/01/06 03:34:47;;;;;;;52.35;29.17;;;3.80;99.90;;;;;;5054711;28;20120;-65
2024/01/06 03:37:13;;;;;;;55.10;29.17;;;3.80;99.90;;;;;;5055892;28;20060;-64
2024/01/06 03:39:38;;;;;;;49.22;28.15;;;3.80;99.90;;;;;;5055848;28;20029;-64
2024/01/06 03:42:04;;;;;;;52.67;28.90;;;3.80;99.90;;;;;;5055822;28;20032;-64
2024/01/06 03:44:33;;;;;;;50.55;28.48;;;3.70;99.90;;;;;;5055540;28;20073;-64
2024/01/06 03:46:59;;;;;;;46.47;26.95;;;3.70;99.90;;;;;;5054432;28;20025;-65
2024/01/06 03:49:25;;;;;;;53.95;29.38;;;3.70;99.90;;;;;;5055668;28;20389;-64
2024/01/06 03:51:50;;;;;;;51.13;27.67;;;3.70;99.90;;;;;;5055850;28;20032;-64
2024/01/06 03:54:16;;;;;;;50.92;27.23;;;3.70;99.90;;;;;;5055355;28;20060;-64
2024/01/06 03:56:42;;;;;;;54.90;27.55;;;3.70;99.90;;;;;;5055639;28;20427;-64
2024/01/06 03:59:08;;;;;;;50.97;27.77;;;3.70;99.90;;;;;;5055676;28;20484;-64
2024/01/06 04:01:35;;;;;;;47.50;26.73;;;3.70;99.90;;;;;;5054200;28;20029;-64
2024/01/06 04:04:05;;;;;;;52.03;26.77;;;3.70;99.90;;;;;;5054167;28;20419;-64
2024/01/06 04:06:31;;;;;;;49.13;26.92;;;3.60;99.90;;;;;;5055329;28;20033;-64
2024/01/06 04:08:57;;;;;;;49.45;27.33;;;3.60;99.90;;;;;;5053995;28;20389;-64
2024/01/06 04:11:23;;;;;;;49.05;26.67;;;3.60;99.90;;;;;;5055475;28;20032;-64
2024/01/06 04:13:49;;;;;;;51.13;26.70;;;3.60;99.90;;;;;;5053887;28;20024;-64
2024/01/06 04:16:15;;;;;;;48.78;28.38;;;3.60;99.90;;;;;;5055317;28;20029;-64
2024/01/06 04:18:40;;;;;;;53.60;27.83;;;3.60;99.90;;;;;;5055127;28;20036;-64
2024/01/06 04:21:06;;;;;;;48.60;25.58;;;3.60;99.90;;;;;;5053875;28;20090;-64
2024/01/06 04:23:31;;;;;;;49.13;27.20;;;3.50;99.90;;;;;;5055617;28;20388;-64
2024/01/06 04:25:57;;;;;;;47.85;26.88;;;3.50;99.90;;;;;;5054961;28;20496;-64
2024/01/06 04:28:23;;;;;;;51.90;26.88;;;3.50;99.90;;;;;;5055040;28;20080;-64
2024/01/06 04:30:48;;;;;;;50.10;26.45;;;3.50;99.90;;;;;;5054941;28;20029;-64
2024/01/06 04:33:14;;;;;;;51.28;27.35;;;3.50;99.90;;;;;;5053571;28;20029;-64
2024/01/06 04:35:40;;;;;;;52.33;28.30;;;3.40;99.90;;;;;;5053561;28;20029;-64
2024/01/06 04:38:05;;;;;;;54.50;27.33;;;3.50;99.90;;;;;;5054752;28;20029;-64
2024/01/06 04:40:31;;;;;;;49.92;26.58;;;3.40;99.90;;;;;;5054733;28;20048;-64
2024/01/06 04:42:57;;;;;;;56.95;28.90;;;3.40;99.90;;;;;;5054705;28;20060;-64
2024/01/06 04:45:23;;;;;;;54.92;28.17;;;3.50;99.90;;;;;;5053375;28;20198;-64
2024/01/06 04:47:50;;;;;;;55.67;29.35;;;3.50;99.90;;;;;;5053380;28;20037;-64
2024/01/06 04:50:17;;;;;;;54.70;29.13;;;3.50;99.90;;;;;;5054425;28;20100;-64
2024/01/06 04:52:43;;;;;;;55.38;29.85;;;3.50;99.90;;;;;;5054173;28;20127;-64
2024/01/06 04:55:09;;;;;;;51.58;28.10;;;3.50;99.90;;;;;;5052904;28;20061;-64
2024/01/06 04:57:35;;;;;;;53.03;28.85;;;3.50;99.90;;;;;;5054720;28;20044;-63
2024/01/06 05:00:01;;;;;;;55.25;28.60;;;3.50;99.90;;;;;;5054042;28;20025;-64
2024/01/06 05:02:27;;;;;;;56.30;29.00;;;3.50;99.90;;;;;;5054339;28;20024;-64
2024/01/06 05:04:52;;;;;;;57.70;30.02;;;3.50;99.90;;;;;;5053147;28;20424;-64
2024/01/06 05:07:18;;;;;;;56.42;29.90;;;3.50;99.90;;;;;;5053420;28;20438;-64
2024/01/06 05:09:43;;;;;;;53.28;29.40;;;3.50;99.90;;;;;;5054984;28;20025;-64
2024/01/06 05:12:09;;;;;;;55.80;29.60;;;3.50;99.90;;;;;;5055277;28;20036;-65
2024/01/06 05:14:35;;;;;;;56.78;30.38;;;3.50;99.90;;;;;;5055036;28;20373;-64
2024/01/06 05:17:00;;;;;;;55.92;29.80;;;3.50;99.90;;;;;;5052865;28;20067;-65
2024/01/06 05:19:26;;;;;;;55.97;29.48;;;3.50;99.90;;;;;;5052836;28;20025;-64
2024/01/06 05:21:52;;;;;;;55.22;29.30;;;3.50;99.90;;;;;;5054015;28;20060;-64
2024/01/06 05:24:19;;;;;;;54.63;28.80;;;3.50;99.90;;;;;;5053739;28;20056;-64
2024/01/06 05:26:44;;;;;;;58.58;29.40;;;3.50;99.90;;;;;;5053972;28;20025;-64
2024/01/06 05:29:10;;;;;;;57.85;30.00;;;3.60;99.90;;;;;;5053888;28;20381;-64
2024/01/06 05:31:36;;;;;;;55.63;28.83;;;3.60;99.90;;;;;;5053970;28;20457;-64
2024/01/06 05:34:01;;;;;;;51.63;28.75;;;3.60;99.90;;;;;;5054224;28;20102;-64
2024/01/06 05:36:27;;;;;;;55.80;27.65;;;3.60;99.90;;;;;;5052788;28;20156;-64
2024/01/06 05:38:53;;;;;;;62.08;29.10;;;3.60;99.90;;;;;;5053832;28;20032;-64
2024/01/06 05:41:18;;;;;;;62.42;29.55;;;3.60;99.90;;;;;;5053481;28;20361;-64
2024/01/06 05:43:44;;;;;;;54.50;27.67;;;3.60;99.90;;;;;;5053848;28;20029;-64
2024/01/06 05:46:10;;;;;;;55.60;29.20;;;3.70;99.90;;;;;;5052473;28;20067;-64
2024/01/06 05:48:36;;;;;;;50.90;27.13;;;3.60;99.90;;;;;;5053623;28;20436;-64
2024/01/06 05:51:05;;;;;;;52.28;26.65;;;3.60;99.90;;;;;;5053396;28;20025;-64
2024/01/06 05:53:31;;;;;;;;;;;3.60;99.90;;;;;;5053987;28;20107;-64
2024/01/06 05:55:57;;;;;;;55.05;26.75;;;3.60;99.90;;;;;;5052915;28;20362;-64
2024/01/06 05:58:22;;;;;;;51.67;26.85;;;3.50;99.90;;;;;;5052339;28;20037;-64
2024/01/06 06:00:48;;;;;;;53.00;27.45;;;3.90;99.90;;;;;;5053844;28;20108;-64
2024/01/06 06:03:14;;;;;;;49.33;26.55;;;3.50;99.90;;;;;;5053587;28;20053;-64
2024/01/06 06:05:39;;;;;;;52.05;26.92;;;3.50;99.90;;;;;;5053831;28;20376;-64
2024/01/06 06:08:05;;;;;;;52.92;27.42;;;3.60;99.90;;;;;;5053454;28;20033;-64
2024/01/06 06:10:40;;;;;;;49.17;27.23;;;3.60;99.90;;;;;;5053490;28;20025;-64
2024/01/06 06:13:10;;;;;;;51.05;25.98;;;3.70;99.90;;;;;;5055163;28;20461;-65
2024/01/06 06:15:36;;;;;;;47.35;26.73;;;3.70;99.90;;;;;;5056201;28;20025;-64
2024/01/06 06:18:02;;;;;;;48.53;25.85;;;3.70;99.90;;;;;;5058120;28;20036;-64
2024/01/06 06:20:27;;;;;;;48.83;24.50;;;3.70;99.90;;;;;;5057468;28;20509;-64
2024/01/06 06:22:53;;;;;;;47.10;25.38;;;3.70;99.90;;;;;;5057620;28;20017;-64
2024/01/06 06:25:19;;;;;;;46.50;24.38;;;3.70;99.90;;;;;;5056955;28;20100;-64
2024/01/06 06:27:45;;;;;;;48.58;24.77;;;3.70;99.90;;;;;;5055932;28;20056;-64
2024/01/06 06:30:11;;;;;;;47.65;25.00;;;3.70;99.90;;;;;;5056032;28;20068;-64
2024/01/06 06:32:36;;;;;;;49.03;25.55;;;3.70;99.90;;;;;;5057132;28;20525;-64
2024/01/06 06:35:02;;;;;;;47.45;25.10;;;3.70;99.90;;;;;;5055894;28;20108;-64
2024/01/06 06:37:28;;;;;;;47.72;25.75;;;3.70;99.90;;;;;;5055790;28;20036;-64
2024/01/06 06:39:54;;;;;;;46.67;24.70;;;3.70;99.90;;;;;;5057035;28;20047;-64
2024/01/06 06:42:19;;;;;;;52.63;26.70;;;3.70;99.90;;;;;;5056987;28;20079;-64
2024/01/06 06:44:45;;;;;;;48.75;24.52;;;3.70;99.90;;;;;;5056951;28;20521;-64
2024/01/06 06:47:10;;;;;;;56.13;26.20;;;3.70;99.90;;;;;;5056898;28;20041;-64
2024/01/06 06:49:36;;;;;;;47.25;25.55;;;3.70;99.90;;;;;;5056903;28;20056;-64
2024/01/06 06:52:03;;;;;;;53.92;26.98;;;3.70;99.90;;;;;;5056522;28;20108;-64
2024/01/06 06:54:29;;;;;;;51.53;26.50;;;3.60;99.90;;;;;;5054948;28;20045;-64
2024/01/06 06:56:54;;;;;;;52.30;26.02;;;3.60;99.90;;;;;;5056950;28;20029;-64
2024/01/06 06:59:20;;;;;;;50.28;26.05;;;3.60;99.90;;;;;;5056988;28;20029;-64
2024/01/06 07:01:45;;;;;;;48.38;25.45;;;3.60;99.90;;;;;;5055375;28;20124;-64
2024/01/06 07:04:11;;;;;;;54.35;26.05;;;3.60;99.90;;;;;;5056872;28;20054;-64
2024/01/06 07:06:37;;;;;;;49.35;24.60;;;3.60;99.90;;;;;;5055325;28;20033;-64
2024/01/06 07:09:04;;;;;;;54.97;27.42;;;3.60;99.90;;;;;;5055242;28;20107;-64
2024/01/06 07:11:30;;;;;;;54.55;27.75;;;3.60;99.90;;;;;;5056467;28;20140;-64
2024/01/06 07:13:56;;;;;;;57.53;28.48;;;3.60;99.90;;;;;;5056425;28;20124;-64
2024/01/06 07:16:21;;;;;;;51.97;27.92;;;3.60;99.90;;;;;;5055119;28;20025;-64
2024/01/06 07:18:47;;;;;;;59.42;28.58;;;3.60;99.90;;;;;;5056114;28;20036;-64
2024/01/06 07:21:13;;;;;;;58.97;29.50;;;3.60;99.90;;;;;;5056264;28;20025;-64
2024/01/06 07:23:39;;;;;;;62.83;31.30;;;3.60;99.90;;;;;;5054621;28;20056;-64
2024/01/06 07:26:05;;;;;;;61.45;29.42;;;3.60;99.90;;;;;;5056133;28;20049;-65
2024/01/06 07:28:30;;;;;;;54.47;29.05;;;3.60;99.90;;;;;;5056130;28;20090;-64
2024/01/06 07:30:56;;;;;;;55.22;29.05;;;3.60;99.90;;;;;;5055022;28;20075;-64
2024/01/06 07:33:22;;;;;;;55.45;30.25;;;3.70;99.90;;;;;;5056020;28;20027;-64
2024/01/06 07:35:47;;;;;;;60.28;28.48;;;3.70;99.90;;;;;;5054732;28;20040;-64
2024/01/06 07:38:13;;;;;;;59.08;27.70;;;3.70;99.90;;;;;;5055907;28;20108;-64
2024/01/06 07:40:39;;;;;;;60.83;28.42;;;3.70;99.90;;;;;;5054674;28;20029;-64
2024/01/06 07:43:05;;;;;;;60.20;28.80;;;3.70;99.90;;;;;;5056058;28;20507;-64
2024/01/06 07:45:31;;;;;;;52.58;28.35;;;3.70;99.90;;;;;;5055255;28;20033;-65
2024/01/06 07:48:00;;;;;;;56.00;29.35;;;3.70;99.90;;;;;;5048849;28;20041;-64
2024/01/06 07:50:26;;;;;;;59.75;29.65;;;3.70;99.90;;;;;;5055417;28;20036;-64
2024/01/06 07:52:53;;;;;;;55.63;27.42;;;3.70;99.90;;;;;;5061770;28;20049;-64
2024/01/06 07:55:19;;;;;;;64.03;29.80;;;3.70;99.90;;;;;;5060340;28;20032;-64
2024/01/06 07:57:44;;;;;;;55.08;29.00;;;3.70;99.90;;;;;;5064002;28;20033;-64
2024/01/06 08:00:14;;;;;;;59.97;31.10;;;3.70;99.90;;;;;;5064060;28;20036;-65
2024/01/06 08:02:40;;;;;;;56.78;29.10;;;3.70;99.90;;;;;;5062268;28;20380;-64
2024/01/06 08:05:06;;;;;;;55.40;27.67;;;3.70;99.90;;;;;;5056246;28;20380;-65
2024/01/06 08:07:32;;;;;;;53.78;28.88;;;3.70;99.90;;;;;;5066197;28;20039;-65
2024/01/06 08:09:58;;;;;;;50.30;27.02;;;3.70;99.90;;;;;;5059874;28;20032;-64
2024/01/06 08:12:23;;;;;;;52.55;25.67;;;3.70;99.90;;;;;;5055185;28;20025;-64
2024/01/06 08:14:49;;;;;;;52.67;27.08;;;3.70;99.90;;;;;;5054463;28;20449;-64
2024/01/06 08:17:15;;;;;;;47.95;26.08;;;3.70;99.90;;;;;;5054157;28;20025;-64
2024/01/06 08:19:41;;;;;;;50.35;25.05;;;3.70;99.90;;;;;;5055270;28;20026;-65
2024/01/06 08:22:07;;;;;;;50.22;26.35;;;3.80;99.90;;;;;;5056597;28;20025;-66
2024/01/06 08:24:33;;;;;;;49.85;25.70;;;3.70;99.90;;;;;;5056872;28;20032;-68
2024/01/06 08:26:59;;;;;;;42.97;23.52;;;3.80;99.90;;;;;;5055157;28;20028;-65
2024/01/06 08:29:25;;;;;;;53.33;26.38;;;3.80;99.90;;;;;;5055922;28;20350;-64
2024/01/06 08:31:52;;;;;;;48.83;25.65;;;3.80;99.90;;;;;;5054901;28;20024;-64
2024/01/06 08:34:18;;;;;;;46.28;26.23;;;3.70;99.90;;;;;;5054332;28;20025;-64
2024/01/06 08:36:44;;;;;;;46.25;24.33;;;3.80;99.90;;;;;;5054937;28;20055;-64
2024/01/06 08:39:09;;;;;;;49.03;26.75;;;3.80;99.90;;;;;;5053998;28;20063;-64
2024/01/06 08:41:35;;;;;;;49.17;26.65;;;3.90;99.90;;;;;;5053481;28;20029;-64
2024/01/06 08:44:00;;;;;;;53.05;28.00;;;3.80;99.90;;;;;;5054750;28;20025;-64
2024/01/06 08:46:26;;;;;;;51.28;25.02;;;3.80;99.90;;;;;;5054655;28;20074;-64
2024/01/06 08:48:52;;;;;;;45.97;24.42;;;4.10;99.90;;;;;;5054574;28;20098;-64
2024/01/06 08:51:17;;;;;;;42.03;23.45;;;3.80;99.90;;;;;;5055251;28;20029;-64
2024/01/06 08:53:43;;;;;;;41.05;22.92;;;3.80;99.90;;;;;;5053298;28;20048;-64
2024/01/06 08:56:09;;;;;;;42.55;22.52;;;3.80;99.90;;;;;;5054503;28;20029;-65
2024/01/06 08:58:34;;;;;;;38.67;21.67;;;4.00;99.90;;;;;;5054286;28;20358;-64
2024/01/06 09:01:00;;;;;;;47.60;24.17;;;3.80;99.90;;;;;;5055467;28;20036;-64
2024/01/06 09:03:26;;;;;;;41.28;22.17;;;3.80;99.90;;;;;;5054251;28;20186;-64
2024/01/06 09:05:52;;;;;;;40.60;21.50;;;3.80;99.90;;;;;;5054461;28;20372;-65
2024/01/06 09:08:18;;;;;;;33.25;20.98;;;3.90;99.90;;;;;;5053127;28;20041;-65
2024/01/06 09:10:44;;;;;;;31.38;18.45;;;3.90;99.90;;;;;;5054704;28;20108;-60
2024/01/06 09:13:10;;;;;;;34.58;19.00;;;4.00;99.90;;;;;;5055115;28;20033;-62
2024/01/06 09:15:35;;;;;;;29.52;17.73;;;4.20;99.90;;;;;;5053640;28;20032;-60
2024/01/06 09:18:02;;;;;;;28.83;16.98;;;4.20;99.90;;;;;;5052846;28;20123;-61
2024/01/06 09:20:28;;;;;;;24.63;15.10;;;4.20;99.90;;;;;;5055240;28;20029;-65
2024/01/06 09:22:54;;;;;;;24.42;15.40;;;4.20;99.90;;;;;;5054324;28;20086;-65
2024/01/06 09:25:19;;;;;;;25.50;15.30;;;4.10;99.90;;;;;;5054230;28;20104;-65
2024/01/06 09:27:45;;;;;;;24.50;14.18;;;4.10;99.90;;;;;;5052785;28;20465;-65
2024/01/06 09:30:11;;;;;;;19.95;13.88;;;4.10;99.90;;;;;;5052679;28;20070;-66
2024/01/06 09:32:37;;;;;;;21.15;13.38;;;4.10;99.90;;;;;;5054425;28;20028;-66
2024/01/06 09:35:03;;;;;;;18.58;13.05;;;4.10;99.90;;;;;;5053688;28;20357;-66
2024/01/06 09:37:29;;;;;;;26.30;13.43;;;4.10;99.90;;;;;;5053581;28;20473;-66
2024/01/06 09:39:56;;;;;;;20.90;13.88;;;4.10;99.90;;;;;;5053886;28;20032;-65
2024/01/06 09:42:22;;;;;;;22.45;14.30;;;4.10;99.90;;;;;;5053510;28;20036;-65
2024/01/06 09:44:47;;;;;;;23.67;14.52;;;4.10;99.90;;;;;;5053742;28;20020;-65
2024/01/06 09:47:14;;;;;;;22.80;14.82;;;4.20;99.90;;;;;;5053878;28;20100;-65
2024/01/06 09:49:42;;;;;;;23.20;13.82;;;4.20;99.90;;;;;;5053782;28;20025;-65
2024/01/06 09:52:15;;;;;;;25.35;13.73;;;4.20;99.90;;;;;;5052707;28;20032;-65
2024/01/06 09:54:51;;;;;;;20.63;13.50;;;4.20;99.90;;;;;;5052867;28;20049;-64
2024/01/06 09:57:17;;;;;;;21.42;12.52;;;4.20;99.90;;;;;;5053846;28;20047;-65
2024/01/06 09:59:44;;;;;;;21.45;12.50;;;4.40;99.90;;;;;;5052293;28;20025;-65
2024/01/06 10:02:16;;;;;;;16.98;11.07;;;4.30;99.90;;;;;;5053591;28;20025;-65
2024/01/06 10:04:43;;;;;;;20.20;11.60;;;4.40;99.90;;;;;;5053701;28;20025;-65
2024/01/06 10:07:12;;;;;;;19.75;12.02;;;4.40;99.90;;;;;;5052147;28;20484;-65
2024/01/06 10:09:38;;;;;;;23.05;14.48;;;4.40;99.90;;;;;;5053808;28;20071;-65
2024/01/06 10:12:03;;;;;;;20.67;13.63;;;4.30;99.90;;;;;;5052223;28;20029;-65
2024/01/06 10:14:29;;;;;;;35.17;17.48;;;4.40;99.90;;;;;;5053378;28;20025;-65
2024/01/06 10:16:55;;;;;;;24.73;15.30;;;4.30;99.90;;;;;;5053504;28;20081;-65
2024/01/06 10:19:21;;;;;;;35.78;17.73;;;4.30;99.90;;;;;;5053178;28;20485;-65
2024/01/06 10:21:46;;;;;;;29.38;17.30;;;4.30;99.90;;;;;;5053344;28;20029;-65
2024/01/06 10:24:13;;;;;;;30.70;17.88;;;4.30;99.90;;;;;;5053071;28;20033;-65
2024/01/06 10:26:39;;;;;;;30.88;17.13;;;4.30;99.90;;;;;;5052609;28;20029;-65
2024/01/06 10:29:05;;;;;;;26.75;15.60;;;4.30;99.90;;;;;;5053274;28;20035;-65
2024/01/06 10:31:31;;;;;;;28.63;16.30;;;4.20;99.90;;;;;;5053562;28;20028;-65
2024/01/06 10:33:57;;;;;;;27.20;16.08;;;4.20;99.90;;;;;;5053534;28;20040;-65
2024/01/06 10:36:23;;;;;;;29.27;16.38;;;4.20;99.90;;;;;;5053271;28;20112;-65
2024/01/06 10:38:49;;;;;;;27.42;15.85;;;4.20;99.90;;;;;;5053505;28;20036;-65
2024/01/06 10:41:16;;;;;;;26.15;16.20;;;4.20;99.90;;;;;;5053219;28;20466;-65
2024/01/06 10:43:44;;;;;;;27.10;15.55;;;4.10;99.90;;;;;;5053328;28;20139;-65
2024/01/06 10:46:10;;;;;;;24.13;14.75;;;4.10;99.90;;;;;;5053125;28;20025;-65
2024/01/06 10:48:38;;;;;;;25.92;15.82;;;4.10;99.90;;;;;;5052247;28;20034;-65
2024/01/06 10:51:07;;;;;;;22.70;13.77;;;4.00;99.90;;;;;;5053181;28;20032;-65
2024/01/06 10:53:35;;;;;;;26.02;14.38;;;4.00;99.90;;;;;;5051442;28;20045;-65
2024/01/06 10:56:01;;;;;;;27.27;15.73;;;4.00;99.90;;;;;;5053154;28;20029;-65
2024/01/06 10:58:28;;;;;;;26.20;15.00;;;4.00;99.90;;;;;;5053336;28;20036;-65
2024/01/06 11:00:56;;;;;;;22.27;13.20;;;4.00;99.90;;;;;;5055518;28;20044;-65
2024/01/06 11:03:23;;;;;;;22.27;13.88;;;3.90;99.90;;;;;;5056712;28;20025;-66
2024/01/06 11:05:50;;;;;;;21.40;14.25;;;3.90;99.90;;;;;;5056763;28;20029;-66
2024/01/06 11:08:17;;;;;;;25.10;14.13;;;3.90;99.90;;;;;;5055368;28;20459;-65
2024/01/06 11:10:44;;;;;;;24.27;14.18;;;3.90;99.90;;;;;;5056793;28;20037;-65
2024/01/06 11:13:20;;;;;;;19.45;12.68;;;3.90;99.90;;;;;;5055228;28;20445;-65
2024/01/06 11:15:52;;;;;;;24.23;13.60;;;3.90;99.90;;;;;;5055464;28;20057;-65
2024/01/06 11:18:35;;;;;;;21.95;13.13;;;3.90;99.90;;;;;;5056536;28;20040;-65
2024/01/06 11:21:24;;;;;;;23.40;13.52;;;3.90;99.90;;;;;;5056440;28;20059;-65
2024/01/06 11:24:17;;;;;;;21.27;13.05;;;3.80;99.90;;;;;;5056622;28;20025;-65
2024/01/06 11:26:44;;;;;;;23.17;13.82;;;3.80;99.90;;;;;;5056505;28;20027;-66
2024/01/06 11:29:10;;;;;;;18.83;12.52;;;3.80;99.90;;;;;;5054836;28;20036;-66
2024/01/06 11:31:37;;;;;;;20.08;13.55;;;3.80;99.90;;;;;;5056043;28;20530;-65
2024/01/06 11:34:21;;;;;;;22.48;13.80;;;3.80;99.90;;;;;;5056085;28;20029;-65
2024/01/06 11:36:50;;;;;;;21.85;12.90;;;3.80;99.90;;;;;;5056006;28;20045;-65
2024/01/06 11:39:40;;;;;;;19.10;12.82;;;3.90;99.90;;;;;;5055716;28;20038;-65
2024/01/06 11:42:06;;;;;;;19.13;12.75;;;3.80;99.90;;;;;;5054839;28;20025;-65
2024/01/06 11:44:39;;;;;;;20.15;13.10;;;3.80;99.90;;;;;;5054987;28;20036;-65
2024/01/06 11:47:06;;;;;;;20.23;13.50;;;3.80;99.90;;;;;;5056279;28;20034;-66
2024/01/06 11:49:32;;;;;;;21.92;13.65;;;3.80;99.90;;;;;;5059219;28;20100;-67
2024/01/06 11:51:58;;;;;;;20.02;13.43;;;3.90;99.90;;;;;;5059034;28;20049;-68
2024/01/06 11:54:24;;;;;;;22.90;14.35;;;3.80;99.90;;;;;;5059156;28;20057;-67
2024/01/06 11:56:53;;;;;;;22.42;13.05;;;3.80;99.90;;;;;;5056874;28;20031;-66
2024/01/06 11:59:18;;;;;;;21.13;13.63;;;3.80;99.90;;;;;;5056165;28;20029;-65
2024/01/06 12:01:45;;;;;;;19.20;13.18;;;3.80;99.90;;;;;;5055665;28;20033;-65
2024/01/06 12:04:15;;;;;;;20.35;12.77;;;3.80;99.90;;;;;;5055651;28;20025;-65
2024/01/06 12:06:41;;;;;;;19.40;13.15;;;3.80;99.90;;;;;;5054155;28;20032;-65
2024/01/06 12:09:08;;;;;;;18.80;12.52;;;3.80;99.90;;;;;;5053347;28;20465;-65
2024/01/06 12:11:33;;;;;;;17.98;12.52;;;3.80;99.90;;;;;;5053654;28;20437;-65
2024/01/06 12:13:59;;;;;;;16.23;11.18;;;3.80;99.90;;;;;;5055299;28;20113;-65
2024/01/06 12:16:27;;;;;;;18.40;11.75;;;3.90;99.90;;;;;;5055306;28;20025;-65
2024/01/06 12:18:57;;;;;;;17.42;12.02;;;3.90;99.90;;;;;;5053866;28;20448;-65
2024/01/06 12:21:23;;;;;;;18.58;12.43;;;3.90;99.90;;;;;;5055472;28;20029;-65
2024/01/06 12:23:49;;;;;;;17.98;11.25;;;3.90;99.90;;;;;;5055362;28;20036;-65
2024/01/06 12:26:16;;;;;;;16.40;10.50;;;3.90;99.90;;;;;;5054978;28;20029;-65
2024/01/06 12:28:45;;;;;;;16.33;10.63;;;3.90;99.90;;;;;;5054924;28;20515;-65
2024/01/06 12:31:12;;;;;;;;;;;4.00;99.90;;;;;;5055307;28;20045;-65
2024/01/06 12:33:41;;;;;;;15.45;10.10;;;3.90;99.90;;;;;;5053591;28;19912;-66